sensor_id;sensor_type;location;lat;lon;timestamp;temperature;humidity
5419;DHT22;2732;52.092;11.556;2023-03-01T00:04:48;-2.10;99.90
5419;DHT22;2732;52.092;11.556;2023-03-01T00:09:49;-2.10;99.90
5419;DHT22;2732;52.092;11.556;2023-03-01T00:14:49;-2.20;99.90
5419;DHT22;2732;52.092;11.556;2023-03-01T00:19:50;-2.20;99.90
5419;DHT22;2732;52.092;11.556;2023-03-01T00:24:51;-2.20;99.90
5419;DHT22;2732;52.092;11.556;2023-03-01T00:29:52;-2.20;99.90
5419;DHT22;2732;52.092;11.556;2023-03-01T00:34:52;-2.30;99.90
5419;DHT22;2732;52.092;11.556;2023-03-01T00:39:56;-2.30;99.90
5419;DHT22;2732;52.092;11.556;2023-03-01T00:44:57;-2.30;99.90
5419;DHT22;2732;52.092;11.556;2023-03-01T00:49:57;-2.30;99.90
5419;DHT22;2732;52.092;11.556;2023-03-01T00:54:58;-2.30;99.90
5419;DHT22;2732;52.092;11.556;2023-03-01T00:59:59;-2.30;99.90
5419;DHT22;2732;52.092;11.556;2023-03-01T01:04:59;-2.30;99.90
5419;DHT22;2732;52.092;11.556;2023-03-01T01:10:00;-2.30;99.90
5419;DHT22;2732;52.092;11.556;2023-03-01T01:15:02;-2.30;99.90
5419;DHT22;2732;52.092;11.556;2023-03-01T01:20:04;-2.30;99.90
5419;DHT22;2732;52.092;11.556;2023-03-01T01:25:06;-2.30;99.90
5419;DHT22;2732;52.092;11.556;2023-03-01T01:30:07;-2.30;99.90
5419;DHT22;2732;52.092;11.556;2023-03-01T01:35:08;-2.30;99.90
5419;DHT22;2732;52.092;11.556;2023-03-01T01:40:10;-2.30;99.90
5419;DHT22;2732;52.092;11.556;2023-03-01T01:45:33;-2.20;99.90
5419;DHT22;2732;52.092;11.556;2023-03-01T01:50:35;-2.20;99.90
5419;DHT22;2732;52.092;11.556;2023-03-01T01:55:48;-2.20;99.90
5419;DHT22;2732;52.092;11.556;2023-03-01T02:00:53;-2.20;99.90
5419;DHT22;2732;52.092;11.556;2023-03-01T02:06:18;-2.20;99.90
5419;DHT22;2732;52.092;11.556;2023-03-01T02:11:25;-2.20;99.90
5419;DHT22;2732;52.092;11.556;2023-03-01T02:16:26;-2.20;99.90
5419;DHT22;2732;52.092;11.556;2023-03-01T02:21:55;-2.20;99.90
5419;DHT22;2732;52.092;11.556;2023-03-01T02:27:07;-2.20;99.90
5419;DHT22;2732;52.092;11.556;2023-03-01T02:32:09;-2.20;99.90
5419;DHT22;2732;52.092;11.556;2023-03-01T02:37:14;-2.20;99.90
5419;DHT22;2732;52.092;11.556;2023-03-01T02:42:21;-2.30;99.90
5419;DHT22;2732;52.092;11.556;2023-03-01T02:47:27;-2.40;99.90
5419;DHT22;2732;52.092;11.556;2023-03-01T02:52:45;-2.40;99.90
5419;DHT22;2732;52.092;11.556;2023-03-01T02:57:48;-2.50;99.90
5419;DHT22;2732;52.092;11.556;2023-03-01T03:02:53;-2.50;99.90
5419;DHT22;2732;52.092;11.556;2023-03-01T03:07:55;-2.50;99.90
5419;DHT22;2732;52.092;11.556;2023-03-01T03:13:05;-2.50;99.90
5419;DHT22;2732;52.092;11.556;2023-03-01T03:18:17;-2.50;99.90
5419;DHT22;2732;52.092;11.556;2023-03-01T03:23:20;-2.50;99.90
5419;DHT22;2732;52.092;11.556;2023-03-01T03:28:21;-2.50;99.90
5419;DHT22;2732;52.092;11.556;2023-03-01T03:33:25;-2.60;99.90
5419;DHT22;2732;52.092;11.556;2023-03-01T03:38:26;-2.60;99.90
5419;DHT22;2732;52.092;11.556;2023-03-01T03:43:27;-2.60;99.90
5419;DHT22;2732;52.092;11.556;2023-03-01T03:48:27;-2.60;99.90
5419;DHT22;2732;52.092;11.556;2023-03-01T03:53:29;-2.70;99.90
5419;DHT22;2732;52.092;11.556;2023-03-01T03:58:29;-2.70;99.90
5419;DHT22;2732;52.092;11.556;2023-03-01T04:03:31;-2.80;99.90
5419;DHT22;2732;52.092;11.556;2023-03-01T04:08:33;-2.90;99.90
5419;DHT22;2732;52.092;11.556;2023-03-01T04:13:34;-2.90;99.90
5419;DHT22;2732;52.092;11.556;2023-03-01T04:18:34;-2.90;99.90
5419;DHT22;2732;52.092;11.556;2023-03-01T04:23:35;-2.90;99.90
5419;DHT22;2732;52.092;11.556;2023-03-01T04:28:41;-2.90;99.90
5419;DHT22;2732;52.092;11.556;2023-03-01T04:33:51;-3.00;99.90
5419;DHT22;2732;52.092;11.556;2023-03-01T04:38:53;-3.00;99.90
5419;DHT22;2732;52.092;11.556;2023-03-01T04:43:54;-3.00;99.90
5419;DHT22;2732;52.092;11.556;2023-03-01T04:48:55;-3.10;99.90
5419;DHT22;2732;52.092;11.556;2023-03-01T04:53:56;-3.10;99.90
5419;DHT22;2732;52.092;11.556;2023-03-01T04:58:56;-3.10;99.90
5419;DHT22;2732;52.092;11.556;2023-03-01T05:03:57;-3.00;99.90
5419;DHT22;2732;52.092;11.556;2023-03-01T05:09:04;-3.00;99.90
5419;DHT22;2732;52.092;11.556;2023-03-01T05:14:06;-3.00;99.90
5419;DHT22;2732;52.092;11.556;2023-03-01T05:19:08;-3.00;99.90
5419;DHT22;2732;52.092;11.556;2023-03-01T05:24:15;-3.00;99.90
5419;DHT22;2732;52.092;11.556;2023-03-01T05:29:15;-3.00;99.90
5419;DHT22;2732;52.092;11.556;2023-03-01T05:34:17;-3.00;99.90
5419;DHT22;2732;52.092;11.556;2023-03-01T05:39:17;-3.00;99.90
5419;DHT22;2732;52.092;11.556;2023-03-01T05:44:18;-3.00;99.90
5419;DHT22;2732;52.092;11.556;2023-03-01T05:49:19;-3.00;99.90
5419;DHT22;2732;52.092;11.556;2023-03-01T05:54:21;-3.00;99.90
5419;DHT22;2732;52.092;11.556;2023-03-01T05:59:24;-3.00;99.90
5419;DHT22;2732;52.092;11.556;2023-03-01T06:04:25;-3.00;99.90
5419;DHT22;2732;52.092;11.556;2023-03-01T06:09:26;-3.00;99.90
5419;DHT22;2732;52.092;11.556;2023-03-01T06:14:26;-3.00;99.90
5419;DHT22;2732;52.092;11.556;2023-03-01T06:19:27;-3.10;99.90
5419;DHT22;2732;52.092;11.556;2023-03-01T06:24:28;-3.10;99.90
5419;DHT22;2732;52.092;11.556;2023-03-01T06:29:29;-3.10;99.90
5419;DHT22;2732;52.092;11.556;2023-03-01T06:34:30;-3.10;99.90
5419;DHT22;2732;52.092;11.556;2023-03-01T06:39:32;-3.10;99.90
5419;DHT22;2732;52.092;11.556;2023-03-01T06:44:33;-3.10;99.90
5419;DHT22;2732;52.092;11.556;2023-03-01T06:49:34;-3.10;99.90
5419;DHT22;2732;52.092;11.556;2023-03-01T06:54:34;-3.10;99.90
5419;DHT22;2732;52.092;11.556;2023-03-01T06:59:35;-3.10;99.90
5419;DHT22;2732;52.092;11.556;2023-03-01T07:04:36;-3.00;99.90
5419;DHT22;2732;52.092;11.556;2023-03-01T07:09:36;-3.00;99.90
5419;DHT22;2732;52.092;11.556;2023-03-01T07:14:37;-2.90;99.90
5419;DHT22;2732;52.092;11.556;2023-03-01T07:19:38;-3.00;99.90
5419;DHT22;2732;52.092;11.556;2023-03-01T07:24:39;-2.90;99.90
5419;DHT22;2732;52.092;11.556;2023-03-01T07:29:39;-2.90;99.90
5419;DHT22;2732;52.092;11.556;2023-03-01T07:34:40;-2.80;99.90
5419;DHT22;2732;52.092;11.556;2023-03-01T07:39:40;-2.70;99.90
5419;DHT22;2732;52.092;11.556;2023-03-01T07:44:41;-2.70;99.90
5419;DHT22;2732;52.092;11.556;2023-03-01T07:49:44;-2.60;99.90
5419;DHT22;2732;52.092;11.556;2023-03-01T07:54:47;-2.60;99.90
5419;DHT22;2732;52.092;11.556;2023-03-01T07:59:47;-2.60;99.90
5419;DHT22;2732;52.092;11.556;2023-03-01T08:04:48;-2.50;99.90
5419;DHT22;2732;52.092;11.556;2023-03-01T08:09:48;-2.40;99.90
5419;DHT22;2732;52.092;11.556;2023-03-01T08:14:49;-2.30;99.90
5419;DHT22;2732;52.092;11.556;2023-03-01T08:19:49;-2.10;99.90
5419;DHT22;2732;52.092;11.556;2023-03-01T08:24:50;-2.00;99.90
5419;DHT22;2732;52.092;11.556;2023-03-01T08:29:51;-1.90;99.90
5419;DHT22;2732;52.092;11.556;2023-03-01T08:34:51;-1.70;99.90
5419;DHT22;2732;52.092;11.556;2023-03-01T08:39:52;-1.60;99.90
5419;DHT22;2732;52.092;11.556;2023-03-01T08:44:53;-1.40;99.90
5419;DHT22;2732;52.092;11.556;2023-03-01T08:49:53;-1.20;99.90
5419;DHT22;2732;52.092;11.556;2023-03-01T08:54:54;-1.00;99.90
5419;DHT22;2732;52.092;11.556;2023-03-01T08:59:55;-0.70;99.90
5419;DHT22;2732;52.092;11.556;2023-03-01T09:04:56;-0.50;99.90
5419;DHT22;2732;52.092;11.556;2023-03-01T09:09:56;-0.20;99.90
5419;DHT22;2732;52.092;11.556;2023-03-01T09:14:57;0.10;99.90
5419;DHT22;2732;52.092;11.556;2023-03-01T09:19:58;0.40;99.90
5419;DHT22;2732;52.092;11.556;2023-03-01T09:25:00;0.70;99.90
5419;DHT22;2732;52.092;11.556;2023-03-01T09:30:01;1.10;99.90
5419;DHT22;2732;52.092;11.556;2023-03-01T09:35:07;1.40;99.90
5419;DHT22;2732;52.092;11.556;2023-03-01T09:40:14;1.80;99.90
5419;DHT22;2732;52.092;11.556;2023-03-01T09:50:35;2.60;99.90
5419;DHT22;2732;52.092;11.556;2023-03-01T10:00:56;3.40;99.90
5419;DHT22;2732;52.092;11.556;2023-03-01T10:06:15;3.70;99.90
5419;DHT22;2732;52.092;11.556;2023-03-01T10:11:25;4.10;99.90
5419;DHT22;2732;52.092;11.556;2023-03-01T10:16:50;4.50;99.90
5419;DHT22;2732;52.092;11.556;2023-03-01T10:21:57;4.80;99.90
5419;DHT22;2732;52.092;11.556;2023-03-01T10:32:30;5.40;99.90
5419;DHT22;2732;52.092;11.556;2023-03-01T10:37:31;5.70;99.90
5419;DHT22;2732;52.092;11.556;2023-03-01T10:42:40;5.90;99.90
5419;DHT22;2732;52.092;11.556;2023-03-01T10:48:26;6.20;99.90
5419;DHT22;2732;52.092;11.556;2023-03-01T10:53:41;6.50;99.90
5419;DHT22;2732;52.092;11.556;2023-03-01T10:59:05;6.80;99.90
5419;DHT22;2732;52.092;11.556;2023-03-01T11:04:27;7.00;99.90
5419;DHT22;2732;52.092;11.556;2023-03-01T11:09:31;7.30;99.90
5419;DHT22;2732;52.092;11.556;2023-03-01T11:14:46;7.60;99.90
5419;DHT22;2732;52.092;11.556;2023-03-01T11:25:15;7.90;99.90
5419;DHT22;2732;52.092;11.556;2023-03-01T11:36:31;8.20;99.90
5419;DHT22;2732;52.092;11.556;2023-03-01T11:41:36;8.30;99.80
5419;DHT22;2732;52.092;11.556;2023-03-01T11:47:13;8.50;99.90
5419;DHT22;2732;52.092;11.556;2023-03-01T12:09:48;9.00;97.00
5419;DHT22;2732;52.092;11.556;2023-03-01T12:20:54;8.90;97.30
5419;DHT22;2732;52.092;11.556;2023-03-01T12:43:26;7.90;97.00
5419;DHT22;2732;52.092;11.556;2023-03-01T12:54:15;7.30;97.40
5419;DHT22;2732;52.092;11.556;2023-03-01T13:10:41;6.60;97.70
5419;DHT22;2732;52.092;11.556;2023-03-01T13:15:50;6.40;98.10
5419;DHT22;2732;52.092;11.556;2023-03-01T13:20:53;6.30;98.10
5419;DHT22;2732;52.092;11.556;2023-03-01T13:30:59;6.10;98.50
5419;DHT22;2732;52.092;11.556;2023-03-01T13:36:01;6.10;98.70
5419;DHT22;2732;52.092;11.556;2023-03-01T13:41:04;6.00;98.20
5419;DHT22;2732;52.092;11.556;2023-03-01T13:46:23;6.10;98.60
5419;DHT22;2732;52.092;11.556;2023-03-01T13:51:27;6.60;98.10
5419;DHT22;2732;52.092;11.556;2023-03-01T13:56:35;7.10;97.70
5419;DHT22;2732;52.092;11.556;2023-03-01T14:01:37;7.50;97.30
5419;DHT22;2732;52.092;11.556;2023-03-01T14:06:38;7.90;97.30
5419;DHT22;2732;52.092;11.556;2023-03-01T14:22:33;8.50;97.20
5419;DHT22;2732;52.092;11.556;2023-03-01T14:27:39;8.60;97.60
5419;DHT22;2732;52.092;11.556;2023-03-01T14:32:42;8.70;97.70
5419;DHT22;2732;52.092;11.556;2023-03-01T14:37:42;8.80;97.50
5419;DHT22;2732;52.092;11.556;2023-03-01T14:42:45;8.80;97.90
5419;DHT22;2732;52.092;11.556;2023-03-01T14:47:47;8.80;97.70
5419;DHT22;2732;52.092;11.556;2023-03-01T14:52:50;8.80;98.20
5419;DHT22;2732;52.092;11.556;2023-03-01T14:57:53;8.80;97.90
5419;DHT22;2732;52.092;11.556;2023-03-01T15:02:56;8.80;98.40
5419;DHT22;2732;52.092;11.556;2023-03-01T15:08:02;8.80;98.40
5419;DHT22;2732;52.092;11.556;2023-03-01T15:13:14;8.80;97.90
5419;DHT22;2732;52.092;11.556;2023-03-01T15:18:29;8.80;97.70
5419;DHT22;2732;52.092;11.556;2023-03-01T15:23:30;8.80;97.80
5419;DHT22;2732;52.092;11.556;2023-03-01T15:28:37;8.80;97.90
5419;DHT22;2732;52.092;11.556;2023-03-01T15:33:41;8.70;98.00
5419;DHT22;2732;52.092;11.556;2023-03-01T15:38:54;8.70;98.80
5419;DHT22;2732;52.092;11.556;2023-03-01T15:44:13;8.70;98.90
5419;DHT22;2732;52.092;11.556;2023-03-01T15:54:40;8.70;98.80
5419;DHT22;2732;52.092;11.556;2023-03-01T15:59:42;8.70;98.60
5419;DHT22;2732;52.092;11.556;2023-03-01T16:04:46;8.60;98.40
5419;DHT22;2732;52.092;11.556;2023-03-01T16:09:49;8.50;98.30
5419;DHT22;2732;52.092;11.556;2023-03-01T16:14:50;8.30;97.60
5419;DHT22;2732;52.092;11.556;2023-03-01T16:19:51;8.00;97.80
5419;DHT22;2732;52.092;11.556;2023-03-01T16:24:51;7.80;98.30
5419;DHT22;2732;52.092;11.556;2023-03-01T16:29:52;7.50;98.40
5419;DHT22;2732;52.092;11.556;2023-03-01T16:34:52;7.30;98.30
5419;DHT22;2732;52.092;11.556;2023-03-01T16:39:53;7.00;98.20
5419;DHT22;2732;52.092;11.556;2023-03-01T16:44:57;6.80;98.50
5419;DHT22;2732;52.092;11.556;2023-03-01T16:49:58;6.50;98.70
5419;DHT22;2732;52.092;11.556;2023-03-01T16:54:58;6.30;98.80
5419;DHT22;2732;52.092;11.556;2023-03-01T16:59:59;6.00;99.10
5419;DHT22;2732;52.092;11.556;2023-03-01T17:05:00;5.80;99.50
5419;DHT22;2732;52.092;11.556;2023-03-01T17:10:01;5.50;99.70
5419;DHT22;2732;52.092;11.556;2023-03-01T17:15:06;5.30;99.90
5419;DHT22;2732;52.092;11.556;2023-03-01T17:20:08;5.00;99.80
5419;DHT22;2732;52.092;11.556;2023-03-01T17:25:10;4.80;99.70
5419;DHT22;2732;52.092;11.556;2023-03-01T17:30:13;4.50;99.70
5419;DHT22;2732;52.092;11.556;2023-03-01T17:35:14;4.30;99.60
5419;DHT22;2732;52.092;11.556;2023-03-01T17:40:15;4.00;99.50
5419;DHT22;2732;52.092;11.556;2023-03-01T17:45:16;3.90;99.50
5419;DHT22;2732;52.092;11.556;2023-03-01T17:50:16;3.70;99.50
5419;DHT22;2732;52.092;11.556;2023-03-01T17:55:17;3.50;99.50
5419;DHT22;2732;52.092;11.556;2023-03-01T18:00:18;3.30;99.60
5419;DHT22;2732;52.092;11.556;2023-03-01T18:05:19;3.10;99.60
5419;DHT22;2732;52.092;11.556;2023-03-01T18:10:20;2.90;99.80
5419;DHT22;2732;52.092;11.556;2023-03-01T18:15:21;2.70;99.80
5419;DHT22;2732;52.092;11.556;2023-03-01T18:20:21;2.60;99.90
5419;DHT22;2732;52.092;11.556;2023-03-01T18:25:22;2.40;99.90
5419;DHT22;2732;52.092;11.556;2023-03-01T18:30:23;2.30;99.90
5419;DHT22;2732;52.092;11.556;2023-03-01T18:35:25;2.10;99.90
5419;DHT22;2732;52.092;11.556;2023-03-01T18:40:28;2.00;99.90
5419;DHT22;2732;52.092;11.556;2023-03-01T18:45:30;1.80;99.90
5419;DHT22;2732;52.092;11.556;2023-03-01T18:50:30;1.70;99.90
5419;DHT22;2732;52.092;11.556;2023-03-01T18:55:38;1.50;99.90
5419;DHT22;2732;52.092;11.556;2023-03-01T19:00:38;1.40;99.90
5419;DHT22;2732;52.092;11.556;2023-03-01T19:05:40;1.30;99.90
5419;DHT22;2732;52.092;11.556;2023-03-01T19:10:40;1.10;99.90
5419;DHT22;2732;52.092;11.556;2023-03-01T19:15:41;1.00;99.90
5419;DHT22;2732;52.092;11.556;2023-03-01T19:20:42;0.90;99.90
5419;DHT22;2732;52.092;11.556;2023-03-01T19:25:43;0.80;99.90
5419;DHT22;2732;52.092;11.556;2023-03-01T19:30:46;0.60;99.90
5419;DHT22;2732;52.092;11.556;2023-03-01T19:35:46;0.50;99.90
5419;DHT22;2732;52.092;11.556;2023-03-01T19:40:48;0.40;99.90
5419;DHT22;2732;52.092;11.556;2023-03-01T19:45:51;0.30;99.90
5419;DHT22;2732;52.092;11.556;2023-03-01T19:50:52;0.30;99.90
5419;DHT22;2732;52.092;11.556;2023-03-01T19:55:57;0.20;99.90
5419;DHT22;2732;52.092;11.556;2023-03-01T20:00:59;0.10;99.90
5419;DHT22;2732;52.092;11.556;2023-03-01T20:06:09;0.10;99.90
5419;DHT22;2732;52.092;11.556;2023-03-01T20:11:13;0.00;99.90
5419;DHT22;2732;52.092;11.556;2023-03-01T20:16:16;0.00;99.90
5419;DHT22;2732;52.092;11.556;2023-03-01T20:21:18;-0.10;99.90
5419;DHT22;2732;52.092;11.556;2023-03-01T20:26:21;-0.20;99.90
5419;DHT22;2732;52.092;11.556;2023-03-01T20:31:23;-0.20;99.90
5419;DHT22;2732;52.092;11.556;2023-03-01T20:36:28;-0.30;99.90
5419;DHT22;2732;52.092;11.556;2023-03-01T20:41:29;-0.30;99.90
5419;DHT22;2732;52.092;11.556;2023-03-01T20:46:31;-0.30;99.90
5419;DHT22;2732;52.092;11.556;2023-03-01T20:51:32;-0.40;99.90
5419;DHT22;2732;52.092;11.556;2023-03-01T20:56:33;-0.40;99.90
5419;DHT22;2732;52.092;11.556;2023-03-01T21:01:35;-0.50;99.90
5419;DHT22;2732;52.092;11.556;2023-03-01T21:06:38;-0.60;99.90
5419;DHT22;2732;52.092;11.556;2023-03-01T21:11:39;-0.60;99.90
5419;DHT22;2732;52.092;11.556;2023-03-01T21:16:39;-0.70;99.90
5419;DHT22;2732;52.092;11.556;2023-03-01T21:21:47;-0.80;99.90
5419;DHT22;2732;52.092;11.556;2023-03-01T21:26:48;-0.80;99.90
5419;DHT22;2732;52.092;11.556;2023-03-01T21:31:48;-0.80;99.90
5419;DHT22;2732;52.092;11.556;2023-03-01T21:36:50;-0.80;99.90
5419;DHT22;2732;52.092;11.556;2023-03-01T21:41:50;-0.80;99.90
5419;DHT22;2732;52.092;11.556;2023-03-01T21:46:52;-0.80;99.90
5419;DHT22;2732;52.092;11.556;2023-03-01T21:51:53;-0.80;99.90
5419;DHT22;2732;52.092;11.556;2023-03-01T21:56:53;-0.80;99.90
5419;DHT22;2732;52.092;11.556;2023-03-01T22:01:54;-0.80;99.90
5419;DHT22;2732;52.092;11.556;2023-03-01T22:06:54;-0.80;99.90
5419;DHT22;2732;52.092;11.556;2023-03-01T22:11:56;-0.80;99.90
5419;DHT22;2732;52.092;11.556;2023-03-01T22:17:02;-0.80;99.90
5419;DHT22;2732;52.092;11.556;2023-03-01T22:22:06;-0.90;99.90
5419;DHT22;2732;52.092;11.556;2023-03-01T22:27:07;-1.00;99.90
5419;DHT22;2732;52.092;11.556;2023-03-01T22:32:08;-1.10;99.90
5419;DHT22;2732;52.092;11.556;2023-03-01T22:37:09;-1.10;99.90
5419;DHT22;2732;52.092;11.556;2023-03-01T22:42:09;-1.10;99.90
5419;DHT22;2732;52.092;11.556;2023-03-01T22:47:10;-1.20;99.90
5419;DHT22;2732;52.092;11.556;2023-03-01T22:52:11;-1.20;99.90
5419;DHT22;2732;52.092;11.556;2023-03-01T22:57:11;-1.10;99.90
5419;DHT22;2732;52.092;11.556;2023-03-01T23:02:12;-1.10;99.90
5419;DHT22;2732;52.092;11.556;2023-03-01T23:07:13;-1.10;99.90
5419;DHT22;2732;52.092;11.556;2023-03-01T23:12:14;-1.10;99.90
5419;DHT22;2732;52.092;11.556;2023-03-01T23:17:14;-1.10;99.90
5419;DHT22;2732;52.092;11.556;2023-03-01T23:22:15;-1.10;99.90
5419;DHT22;2732;52.092;11.556;2023-03-01T23:27:16;-1.10;99.90
5419;DHT22;2732;52.092;11.556;2023-03-01T23:32:17;-1.10;99.90
5419;DHT22;2732;52.092;11.556;2023-03-01T23:37:18;-1.20;99.90
5419;DHT22;2732;52.092;11.556;2023-03-01T23:42:18;-1.10;99.90
5419;DHT22;2732;52.092;11.556;2023-03-01T23:47:19;-1.10;99.90
5419;DHT22;2732;52.092;11.556;2023-03-01T23:52:19;-1.20;99.90
5419;DHT22;2732;52.092;11.556;2023-03-01T23:57:20;-1.20;99.90
